sensor_id;sensor_type;location;lat;lon;timestamp;temperature;humidity
15359;DHT22;7779;49.596;11.070;2023-02-01T00:00:21;6.40;70.20
15359;DHT22;7779;49.596;11.070;2023-02-01T00:02:46;6.30;70.10
15359;DHT22;7779;49.596;11.070;2023-02-01T00:05:13;6.30;70.10
15359;DHT22;7779;49.596;11.070;2023-02-01T00:07:39;6.30;70.30
15359;DHT22;7779;49.596;11.070;2023-02-01T00:10:06;6.30;70.50
15359;DHT22;7779;49.596;11.070;2023-02-01T00:12:32;6.20;70.40
15359;DHT22;7779;49.596;11.070;2023-02-01T00:14:58;6.20;70.40
15359;DHT22;7779;49.596;11.070;2023-02-01T00:17:24;6.20;70.50
15359;DHT22;7779;49.596;11.070;2023-02-01T00:19:50;6.20;70.60
15359;DHT22;7779;49.596;11.070;2023-02-01T00:22:16;6.20;70.70
15359;DHT22;7779;49.596;11.070;2023-02-01T00:24:42;6.20;70.80
15359;DHT22;7779;49.596;11.070;2023-02-01T00:27:07;6.20;70.90
15359;DHT22;7779;49.596;11.070;2023-02-01T00:29:33;6.20;70.90
15359;DHT22;7779;49.596;11.070;2023-02-01T00:31:59;6.10;70.90
15359;DHT22;7779;49.596;11.070;2023-02-01T00:34:24;6.10;70.90
15359;DHT22;7779;49.596;11.070;2023-02-01T00:36:50;6.10;71.50
15359;DHT22;7779;49.596;11.070;2023-02-01T00:39:16;6.10;71.20
15359;DHT22;7779;49.596;11.070;2023-02-01T00:41:42;6.20;71.30
15359;DHT22;7779;49.596;11.070;2023-02-01T00:44:08;6.10;71.30
15359;DHT22;7779;49.596;11.070;2023-02-01T00:46:34;6.10;71.40
15359;DHT22;7779;49.596;11.070;2023-02-01T00:49:00;6.10;71.40
15359;DHT22;7779;49.596;11.070;2023-02-01T00:51:28;6.20;71.50
15359;DHT22;7779;49.596;11.070;2023-02-01T00:53:56;6.10;71.40
15359;DHT22;7779;49.596;11.070;2023-02-01T00:56:22;6.20;71.60
15359;DHT22;7779;49.596;11.070;2023-02-01T00:58:48;6.20;71.60
15359;DHT22;7779;49.596;11.070;2023-02-01T01:01:27;6.20;71.60
15359;DHT22;7779;49.596;11.070;2023-02-01T01:03:56;6.20;71.80
15359;DHT22;7779;49.596;11.070;2023-02-01T01:06:26;6.20;71.60
15359;DHT22;7779;49.596;11.070;2023-02-01T01:08:55;6.20;71.60
15359;DHT22;7779;49.596;11.070;2023-02-01T01:11:25;6.30;71.70
15359;DHT22;7779;49.596;11.070;2023-02-01T01:13:54;6.30;71.70
15359;DHT22;7779;49.596;11.070;2023-02-01T01:16:23;6.20;71.60
15359;DHT22;7779;49.596;11.070;2023-02-01T01:18:50;6.30;71.60
15359;DHT22;7779;49.596;11.070;2023-02-01T01:21:17;6.30;71.70
15359;DHT22;7779;49.596;11.070;2023-02-01T01:23:44;6.30;71.60
15359;DHT22;7779;49.596;11.070;2023-02-01T01:26:14;6.30;71.60
15359;DHT22;7779;49.596;11.070;2023-02-01T01:28:42;6.30;71.60
15359;DHT22;7779;49.596;11.070;2023-02-01T01:31:10;6.30;71.60
15359;DHT22;7779;49.596;11.070;2023-02-01T01:33:37;6.30;71.60
15359;DHT22;7779;49.596;11.070;2023-02-01T01:36:08;6.30;71.60
15359;DHT22;7779;49.596;11.070;2023-02-01T01:38:39;6.30;71.60
15359;DHT22;7779;49.596;11.070;2023-02-01T01:41:08;6.30;71.60
15359;DHT22;7779;49.596;11.070;2023-02-01T01:43:51;6.30;71.60
15359;DHT22;7779;49.596;11.070;2023-02-01T01:46:31;6.30;72.00
15359;DHT22;7779;49.596;11.070;2023-02-01T01:49:12;6.30;71.60
15359;DHT22;7779;49.596;11.070;2023-02-01T01:51:53;6.30;71.80
15359;DHT22;7779;49.596;11.070;2023-02-01T01:54:29;6.30;71.80
15359;DHT22;7779;49.596;11.070;2023-02-01T01:57:03;6.30;71.70
15359;DHT22;7779;49.596;11.070;2023-02-01T01:59:34;6.30;71.70
15359;DHT22;7779;49.596;11.070;2023-02-01T02:02:03;6.20;71.60
15359;DHT22;7779;49.596;11.070;2023-02-01T02:04:29;6.20;71.70
15359;DHT22;7779;49.596;11.070;2023-02-01T02:07:04;6.20;71.70
15359;DHT22;7779;49.596;11.070;2023-02-01T02:09:33;6.20;71.60
15359;DHT22;7779;49.596;11.070;2023-02-01T02:11:59;6.20;71.80
15359;DHT22;7779;49.596;11.070;2023-02-01T02:14:25;6.20;71.90
15359;DHT22;7779;49.596;11.070;2023-02-01T02:17:03;6.20;71.90
15359;DHT22;7779;49.596;11.070;2023-02-01T02:29:07;6.30;72.00
15359;DHT22;7779;49.596;11.070;2023-02-01T02:34:45;6.30;72.40
15359;DHT22;7779;49.596;11.070;2023-02-01T02:37:26;6.30;71.80
15359;DHT22;7779;49.596;11.070;2023-02-01T02:40:32;6.30;72.10
15359;DHT22;7779;49.596;11.070;2023-02-01T02:43:10;6.30;71.90
15359;DHT22;7779;49.596;11.070;2023-02-01T02:46:25;6.30;72.00
15359;DHT22;7779;49.596;11.070;2023-02-01T02:49:22;6.30;72.30
15359;DHT22;7779;49.596;11.070;2023-02-01T02:52:16;6.30;71.90
15359;DHT22;7779;49.596;11.070;2023-02-01T02:55:04;6.40;73.10
15359;DHT22;7779;49.596;11.070;2023-02-01T02:57:39;6.40;72.00
15359;DHT22;7779;49.596;11.070;2023-02-01T03:00:32;6.40;72.10
15359;DHT22;7779;49.596;11.070;2023-02-01T03:03:18;6.40;72.10
15359;DHT22;7779;49.596;11.070;2023-02-01T03:06:02;6.40;71.90
15359;DHT22;7779;49.596;11.070;2023-02-01T03:08:30;6.40;71.90
15359;DHT22;7779;49.596;11.070;2023-02-01T03:11:04;6.40;72.00
15359;DHT22;7779;49.596;11.070;2023-02-01T03:16:24;6.40;72.20
15359;DHT22;7779;49.596;11.070;2023-02-01T03:19:09;6.40;71.90
15359;DHT22;7779;49.596;11.070;2023-02-01T03:21:48;6.40;71.90
15359;DHT22;7779;49.596;11.070;2023-02-01T03:24:37;6.40;72.00
15359;DHT22;7779;49.596;11.070;2023-02-01T03:27:22;6.40;72.20
15359;DHT22;7779;49.596;11.070;2023-02-01T03:32:47;6.40;71.90
15359;DHT22;7779;49.596;11.070;2023-02-01T03:36:02;6.40;71.80
15359;DHT22;7779;49.596;11.070;2023-02-01T03:38:38;6.40;72.20
15359;DHT22;7779;49.596;11.070;2023-02-01T03:41:39;6.40;71.90
15359;DHT22;7779;49.596;11.070;2023-02-01T03:44:21;6.40;72.10
15359;DHT22;7779;49.596;11.070;2023-02-01T03:46:56;6.40;71.90
15359;DHT22;7779;49.596;11.070;2023-02-01T03:49:43;6.40;71.80
15359;DHT22;7779;49.596;11.070;2023-02-01T03:52:16;6.40;72.10
15359;DHT22;7779;49.596;11.070;2023-02-01T03:54:46;6.40;71.80
15359;DHT22;7779;49.596;11.070;2023-02-01T03:57:14;6.40;71.80
15359;DHT22;7779;49.596;11.070;2023-02-01T03:59:45;6.40;71.90
15359;DHT22;7779;49.596;11.070;2023-02-01T04:02:11;6.40;71.80
15359;DHT22;7779;49.596;11.070;2023-02-01T04:04:37;6.40;71.90
15359;DHT22;7779;49.596;11.070;2023-02-01T04:07:03;6.50;71.90
15359;DHT22;7779;49.596;11.070;2023-02-01T04:09:29;6.40;71.80
15359;DHT22;7779;49.596;11.070;2023-02-01T04:11:55;6.50;71.90
15359;DHT22;7779;49.596;11.070;2023-02-01T04:14:21;6.40;71.80
15359;DHT22;7779;49.596;11.070;2023-02-01T04:16:47;6.40;71.90
15359;DHT22;7779;49.596;11.070;2023-02-01T04:19:12;6.40;71.90
15359;DHT22;7779;49.596;11.070;2023-02-01T04:21:38;6.40;72.00
15359;DHT22;7779;49.596;11.070;2023-02-01T04:24:04;6.40;72.10
15359;DHT22;7779;49.596;11.070;2023-02-01T04:26:30;6.40;72.10
15359;DHT22;7779;49.596;11.070;2023-02-01T04:28:56;6.40;72.10
15359;DHT22;7779;49.596;11.070;2023-02-01T04:31:22;6.40;72.10
15359;DHT22;7779;49.596;11.070;2023-02-01T04:33:54;6.40;72.10
15359;DHT22;7779;49.596;11.070;2023-02-01T04:36:21;6.40;72.20
15359;DHT22;7779;49.596;11.070;2023-02-01T04:38:51;6.40;72.20
15359;DHT22;7779;49.596;11.070;2023-02-01T04:41:18;6.40;72.20
15359;DHT22;7779;49.596;11.070;2023-02-01T04:43:48;6.40;72.20
15359;DHT22;7779;49.596;11.070;2023-02-01T04:46:16;6.40;72.40
15359;DHT22;7779;49.596;11.070;2023-02-01T04:48:42;6.40;72.30
15359;DHT22;7779;49.596;11.070;2023-02-01T04:51:10;6.40;73.00
15359;DHT22;7779;49.596;11.070;2023-02-01T04:53:36;6.40;72.50
15359;DHT22;7779;49.596;11.070;2023-02-01T04:56:02;6.40;72.50
15359;DHT22;7779;49.596;11.070;2023-02-01T04:58:28;6.40;72.50
15359;DHT22;7779;49.596;11.070;2023-02-01T05:00:53;6.40;72.50
15359;DHT22;7779;49.596;11.070;2023-02-01T05:03:19;6.40;72.50
15359;DHT22;7779;49.596;11.070;2023-02-01T05:05:47;6.40;72.60
15359;DHT22;7779;49.596;11.070;2023-02-01T05:08:14;6.40;72.60
15359;DHT22;7779;49.596;11.070;2023-02-01T05:10:40;6.40;72.60
15359;DHT22;7779;49.596;11.070;2023-02-01T05:13:08;6.40;72.60
15359;DHT22;7779;49.596;11.070;2023-02-01T05:15:53;6.40;72.60
15359;DHT22;7779;49.596;11.070;2023-02-01T05:18:19;6.40;72.60
15359;DHT22;7779;49.596;11.070;2023-02-01T05:20:45;6.40;72.60
15359;DHT22;7779;49.596;11.070;2023-02-01T05:23:10;6.40;72.70
15359;DHT22;7779;49.596;11.070;2023-02-01T05:25:36;6.30;72.70
15359;DHT22;7779;49.596;11.070;2023-02-01T05:28:02;6.30;72.50
15359;DHT22;7779;49.596;11.070;2023-02-01T05:30:27;6.30;72.50
15359;DHT22;7779;49.596;11.070;2023-02-01T05:32:53;6.30;72.60
15359;DHT22;7779;49.596;11.070;2023-02-01T05:35:19;6.30;72.50
15359;DHT22;7779;49.596;11.070;2023-02-01T05:37:45;6.30;72.60
15359;DHT22;7779;49.596;11.070;2023-02-01T05:40:11;6.30;72.60
15359;DHT22;7779;49.596;11.070;2023-02-01T05:42:37;6.30;72.60
15359;DHT22;7779;49.596;11.070;2023-02-01T05:45:03;6.30;72.50
15359;DHT22;7779;49.596;11.070;2023-02-01T05:47:30;6.30;72.40
15359;DHT22;7779;49.596;11.070;2023-02-01T05:49:56;6.20;72.40
15359;DHT22;7779;49.596;11.070;2023-02-01T05:52:22;6.20;72.30
15359;DHT22;7779;49.596;11.070;2023-02-01T05:54:48;6.20;72.30
15359;DHT22;7779;49.596;11.070;2023-02-01T05:57:14;6.30;72.30
15359;DHT22;7779;49.596;11.070;2023-02-01T05:59:40;6.20;72.30
15359;DHT22;7779;49.596;11.070;2023-02-01T06:02:09;6.20;72.20
15359;DHT22;7779;49.596;11.070;2023-02-01T06:04:35;6.20;72.20
15359;DHT22;7779;49.596;11.070;2023-02-01T06:07:01;6.20;72.20
15359;DHT22;7779;49.596;11.070;2023-02-01T06:09:27;6.20;72.20
15359;DHT22;7779;49.596;11.070;2023-02-01T06:11:53;6.20;72.20
15359;DHT22;7779;49.596;11.070;2023-02-01T06:14:19;6.10;72.10
15359;DHT22;7779;49.596;11.070;2023-02-01T06:16:45;6.10;72.10
15359;DHT22;7779;49.596;11.070;2023-02-01T06:19:13;6.10;72.10
15359;DHT22;7779;49.596;11.070;2023-02-01T06:21:38;6.10;72.00
15359;DHT22;7779;49.596;11.070;2023-02-01T06:24:04;6.10;72.10
15359;DHT22;7779;49.596;11.070;2023-02-01T06:26:31;6.10;72.20
15359;DHT22;7779;49.596;11.070;2023-02-01T06:28:57;6.10;72.20
15359;DHT22;7779;49.596;11.070;2023-02-01T06:31:23;6.00;72.10
15359;DHT22;7779;49.596;11.070;2023-02-01T06:33:51;6.00;72.20
15359;DHT22;7779;49.596;11.070;2023-02-01T06:36:17;6.00;72.30
15359;DHT22;7779;49.596;11.070;2023-02-01T06:38:44;6.00;72.30
15359;DHT22;7779;49.596;11.070;2023-02-01T06:41:10;6.00;72.30
15359;DHT22;7779;49.596;11.070;2023-02-01T06:43:36;6.00;72.30
15359;DHT22;7779;49.596;11.070;2023-02-01T06:46:07;6.00;72.30
15359;DHT22;7779;49.596;11.070;2023-02-01T06:48:35;6.00;72.30
15359;DHT22;7779;49.596;11.070;2023-02-01T06:51:01;6.00;72.30
15359;DHT22;7779;49.596;11.070;2023-02-01T06:53:27;6.00;72.30
15359;DHT22;7779;49.596;11.070;2023-02-01T06:55:59;6.00;72.40
15359;DHT22;7779;49.596;11.070;2023-02-01T06:58:31;6.00;72.40
15359;DHT22;7779;49.596;11.070;2023-02-01T07:01:04;6.00;72.40
15359;DHT22;7779;49.596;11.070;2023-02-01T07:03:30;6.00;72.30
15359;DHT22;7779;49.596;11.070;2023-02-01T07:05:56;6.00;72.40
15359;DHT22;7779;49.596;11.070;2023-02-01T07:08:26;6.00;72.40
15359;DHT22;7779;49.596;11.070;2023-02-01T07:10:52;6.00;72.40
15359;DHT22;7779;49.596;11.070;2023-02-01T07:13:18;5.90;72.30
15359;DHT22;7779;49.596;11.070;2023-02-01T07:15:44;6.00;72.50
15359;DHT22;7779;49.596;11.070;2023-02-01T07:18:15;6.00;72.40
15359;DHT22;7779;49.596;11.070;2023-02-01T07:20:41;6.00;72.50
15359;DHT22;7779;49.596;11.070;2023-02-01T07:23:09;6.00;72.60
15359;DHT22;7779;49.596;11.070;2023-02-01T07:25:35;6.00;72.60
15359;DHT22;7779;49.596;11.070;2023-02-01T07:28:01;6.00;72.60
15359;DHT22;7779;49.596;11.070;2023-02-01T07:30:27;6.00;72.60
15359;DHT22;7779;49.596;11.070;2023-02-01T07:32:53;6.00;72.60
15359;DHT22;7779;49.596;11.070;2023-02-01T07:35:19;6.00;72.60
15359;DHT22;7779;49.596;11.070;2023-02-01T07:37:45;6.00;72.60
15359;DHT22;7779;49.596;11.070;2023-02-01T07:40:11;6.00;72.60
15359;DHT22;7779;49.596;11.070;2023-02-01T07:42:37;6.00;72.50
15359;DHT22;7779;49.596;11.070;2023-02-01T07:45:03;6.00;72.60
15359;DHT22;7779;49.596;11.070;2023-02-01T07:47:29;6.10;72.60
15359;DHT22;7779;49.596;11.070;2023-02-01T07:49:55;6.10;72.60
15359;DHT22;7779;49.596;11.070;2023-02-01T07:52:20;6.10;72.60
15359;DHT22;7779;49.596;11.070;2023-02-01T07:54:46;6.10;72.60
15359;DHT22;7779;49.596;11.070;2023-02-01T07:57:12;6.50;72.90
15359;DHT22;7779;49.596;11.070;2023-02-01T07:59:38;6.10;72.50
15359;DHT22;7779;49.596;11.070;2023-02-01T08:02:27;6.10;72.60
15359;DHT22;7779;49.596;11.070;2023-02-01T08:04:52;6.10;72.60
15359;DHT22;7779;49.596;11.070;2023-02-01T08:07:18;6.20;72.70
15359;DHT22;7779;49.596;11.070;2023-02-01T08:09:44;6.10;72.70
15359;DHT22;7779;49.596;11.070;2023-02-01T08:12:10;6.20;72.80
15359;DHT22;7779;49.596;11.070;2023-02-01T08:14:35;6.20;73.00
15359;DHT22;7779;49.596;11.070;2023-02-01T08:17:01;6.20;73.00
15359;DHT22;7779;49.596;11.070;2023-02-01T08:19:27;6.30;73.00
15359;DHT22;7779;49.596;11.070;2023-02-01T08:21:53;6.30;73.00
15359;DHT22;7779;49.596;11.070;2023-02-01T08:24:18;6.40;73.10
15359;DHT22;7779;49.596;11.070;2023-02-01T08:26:44;6.40;73.10
15359;DHT22;7779;49.596;11.070;2023-02-01T08:29:10;6.40;73.20
15359;DHT22;7779;49.596;11.070;2023-02-01T08:31:37;6.50;73.30
15359;DHT22;7779;49.596;11.070;2023-02-01T08:34:06;6.60;73.50
15359;DHT22;7779;49.596;11.070;2023-02-01T08:36:33;6.70;73.60
15359;DHT22;7779;49.596;11.070;2023-02-01T08:39:00;6.70;73.50
15359;DHT22;7779;49.596;11.070;2023-02-01T08:41:29;6.80;73.50
15359;DHT22;7779;49.596;11.070;2023-02-01T08:43:56;6.90;73.30
15359;DHT22;7779;49.596;11.070;2023-02-01T08:46:23;6.90;73.20
15359;DHT22;7779;49.596;11.070;2023-02-01T08:48:49;7.00;73.40
15359;DHT22;7779;49.596;11.070;2023-02-01T08:51:17;7.10;73.20
15359;DHT22;7779;49.596;11.070;2023-02-01T08:53:44;7.10;73.00
15359;DHT22;7779;49.596;11.070;2023-02-01T08:56:12;7.20;72.00
15359;DHT22;7779;49.596;11.070;2023-02-01T08:58:39;7.20;72.90
15359;DHT22;7779;49.596;11.070;2023-02-01T09:01:06;7.30;72.80
15359;DHT22;7779;49.596;11.070;2023-02-01T09:03:33;7.40;72.70
15359;DHT22;7779;49.596;11.070;2023-02-01T09:06:07;7.40;72.60
15359;DHT22;7779;49.596;11.070;2023-02-01T09:08:37;7.50;72.30
15359;DHT22;7779;49.596;11.070;2023-02-01T09:11:06;7.50;72.40
15359;DHT22;7779;49.596;11.070;2023-02-01T09:13:35;7.50;72.30
15359;DHT22;7779;49.596;11.070;2023-02-01T09:16:01;7.60;72.20
15359;DHT22;7779;49.596;11.070;2023-02-01T09:18:27;7.60;72.20
15359;DHT22;7779;49.596;11.070;2023-02-01T09:20:52;7.70;72.10
15359;DHT22;7779;49.596;11.070;2023-02-01T09:23:18;7.70;71.90
15359;DHT22;7779;49.596;11.070;2023-02-01T09:25:45;7.70;71.70
15359;DHT22;7779;49.596;11.070;2023-02-01T09:28:13;7.70;71.50
15359;DHT22;7779;49.596;11.070;2023-02-01T09:30:39;7.70;71.40
15359;DHT22;7779;49.596;11.070;2023-02-01T09:33:05;7.70;71.40
15359;DHT22;7779;49.596;11.070;2023-02-01T09:35:31;7.70;71.30
15359;DHT22;7779;49.596;11.070;2023-02-01T09:37:56;7.70;71.20
15359;DHT22;7779;49.596;11.070;2023-02-01T09:40:22;7.70;71.10
15359;DHT22;7779;49.596;11.070;2023-02-01T09:46:08;7.70;70.70
15359;DHT22;7779;49.596;11.070;2023-02-01T09:48:45;7.90;71.10
15359;DHT22;7779;49.596;11.070;2023-02-01T09:51:20;7.80;71.10
15359;DHT22;7779;49.596;11.070;2023-02-01T09:54:08;7.80;70.70
15359;DHT22;7779;49.596;11.070;2023-02-01T09:57:09;7.80;70.50
15359;DHT22;7779;49.596;11.070;2023-02-01T09:59:54;7.80;70.70
15359;DHT22;7779;49.596;11.070;2023-02-01T10:02:27;7.90;70.60
15359;DHT22;7779;49.596;11.070;2023-02-01T10:04:55;7.90;70.90
15359;DHT22;7779;49.596;11.070;2023-02-01T10:10:49;8.00;69.90
15359;DHT22;7779;49.596;11.070;2023-02-01T10:13:38;8.00;70.30
15359;DHT22;7779;49.596;11.070;2023-02-01T10:16:19;8.10;70.10
15359;DHT22;7779;49.596;11.070;2023-02-01T10:22:12;8.10;69.90
15359;DHT22;7779;49.596;11.070;2023-02-01T10:27:49;8.10;68.60
15359;DHT22;7779;49.596;11.070;2023-02-01T10:30:20;8.10;69.70
15359;DHT22;7779;49.596;11.070;2023-02-01T10:33:12;8.10;69.40
15359;DHT22;7779;49.596;11.070;2023-02-01T10:35:44;8.10;68.00
15359;DHT22;7779;49.596;11.070;2023-02-01T10:38:27;8.20;69.70
15359;DHT22;7779;49.596;11.070;2023-02-01T10:40:58;8.20;69.20
15359;DHT22;7779;49.596;11.070;2023-02-01T10:43:28;8.20;69.60
15359;DHT22;7779;49.596;11.070;2023-02-01T10:45:54;8.20;69.50
15359;DHT22;7779;49.596;11.070;2023-02-01T10:48:19;8.20;69.40
15359;DHT22;7779;49.596;11.070;2023-02-01T10:51:00;8.20;69.40
15359;DHT22;7779;49.596;11.070;2023-02-01T10:53:31;8.20;69.20
15359;DHT22;7779;49.596;11.070;2023-02-01T10:56:11;8.20;69.40
15359;DHT22;7779;49.596;11.070;2023-02-01T10:58:46;8.20;69.20
15359;DHT22;7779;49.596;11.070;2023-02-01T11:01:34;8.20;69.00
15359;DHT22;7779;49.596;11.070;2023-02-01T11:04:05;8.20;68.80
15359;DHT22;7779;49.596;11.070;2023-02-01T11:06:40;8.20;69.30
15359;DHT22;7779;49.596;11.070;2023-02-01T11:11:55;8.20;69.50
15359;DHT22;7779;49.596;11.070;2023-02-01T11:14:39;8.20;69.50
15359;DHT22;7779;49.596;11.070;2023-02-01T11:19:44;8.30;69.50
15359;DHT22;7779;49.596;11.070;2023-02-01T11:22:12;8.30;69.50
15359;DHT22;7779;49.596;11.070;2023-02-01T11:24:44;8.40;69.60
15359;DHT22;7779;49.596;11.070;2023-02-01T11:27:17;8.40;69.40
15359;DHT22;7779;49.596;11.070;2023-02-01T11:29:51;8.40;69.20
15359;DHT22;7779;49.596;11.070;2023-02-01T11:32:21;8.40;69.20
15359;DHT22;7779;49.596;11.070;2023-02-01T11:34:59;8.40;69.30
15359;DHT22;7779;49.596;11.070;2023-02-01T11:37:38;8.40;69.30
15359;DHT22;7779;49.596;11.070;2023-02-01T11:43:00;8.40;69.30
15359;DHT22;7779;49.596;11.070;2023-02-01T11:45:34;8.40;69.10
15359;DHT22;7779;49.596;11.070;2023-02-01T11:48:08;8.40;69.40
15359;DHT22;7779;49.596;11.070;2023-02-01T11:56:48;8.40;68.60
15359;DHT22;7779;49.596;11.070;2023-02-01T11:59:38;8.40;69.50
15359;DHT22;7779;49.596;11.070;2023-02-01T12:05:40;8.50;69.00
15359;DHT22;7779;49.596;11.070;2023-02-01T12:11:43;8.50;68.80
15359;DHT22;7779;49.596;11.070;2023-02-01T12:24:02;8.50;68.20
15359;DHT22;7779;49.596;11.070;2023-02-01T12:30:13;8.40;68.00
15359;DHT22;7779;49.596;11.070;2023-02-01T12:33:21;8.40;67.90
15359;DHT22;7779;49.596;11.070;2023-02-01T12:36:19;8.40;68.00
15359;DHT22;7779;49.596;11.070;2023-02-01T12:39:10;8.40;68.00
15359;DHT22;7779;49.596;11.070;2023-02-01T12:42:02;8.30;68.30
15359;DHT22;7779;49.596;11.070;2023-02-01T12:47:57;8.30;67.90
15359;DHT22;7779;49.596;11.070;2023-02-01T12:50:47;8.30;67.40
15359;DHT22;7779;49.596;11.070;2023-02-01T12:53:28;8.20;68.00
15359;DHT22;7779;49.596;11.070;2023-02-01T12:56:05;8.20;67.20
15359;DHT22;7779;49.596;11.070;2023-02-01T12:58:48;8.10;67.30
15359;DHT22;7779;49.596;11.070;2023-02-01T13:03:57;7.90;67.00
15359;DHT22;7779;49.596;11.070;2023-02-01T13:06:38;7.80;67.10
15359;DHT22;7779;49.596;11.070;2023-02-01T13:09:26;7.70;67.40
15359;DHT22;7779;49.596;11.070;2023-02-01T13:11:59;7.60;67.80
15359;DHT22;7779;49.596;11.070;2023-02-01T13:14:33;7.50;67.80
15359;DHT22;7779;49.596;11.070;2023-02-01T13:20:00;7.40;68.40
15359;DHT22;7779;49.596;11.070;2023-02-01T13:22:38;7.30;68.40
15359;DHT22;7779;49.596;11.070;2023-02-01T13:25:20;7.30;68.70
15359;DHT22;7779;49.596;11.070;2023-02-01T13:28:02;7.30;69.00
15359;DHT22;7779;49.596;11.070;2023-02-01T13:30:55;7.30;69.20
15359;DHT22;7779;49.596;11.070;2023-02-01T13:37:20;7.30;69.40
15359;DHT22;7779;49.596;11.070;2023-02-01T13:45:26;7.30;69.40
15359;DHT22;7779;49.596;11.070;2023-02-01T13:47:57;7.30;69.40
15359;DHT22;7779;49.596;11.070;2023-02-01T13:50:31;7.40;69.50
15359;DHT22;7779;49.596;11.070;2023-02-01T13:53:04;7.40;69.30
15359;DHT22;7779;49.596;11.070;2023-02-01T13:55:44;7.40;69.40
15359;DHT22;7779;49.596;11.070;2023-02-01T13:58:20;7.40;69.40
15359;DHT22;7779;49.596;11.070;2023-02-01T14:03:50;7.50;69.00
15359;DHT22;7779;49.596;11.070;2023-02-01T14:11:51;7.50;68.70
15359;DHT22;7779;49.596;11.070;2023-02-01T14:19:36;7.50;68.30
15359;DHT22;7779;49.596;11.070;2023-02-01T14:24:54;7.60;67.90
15359;DHT22;7779;49.596;11.070;2023-02-01T14:27:24;7.60;68.50
15359;DHT22;7779;49.596;11.070;2023-02-01T14:29:58;7.60;68.50
15359;DHT22;7779;49.596;11.070;2023-02-01T14:32:31;7.60;68.50
15359;DHT22;7779;49.596;11.070;2023-02-01T14:35:02;7.60;68.40
15359;DHT22;7779;49.596;11.070;2023-02-01T14:37:35;7.60;68.40
15359;DHT22;7779;49.596;11.070;2023-02-01T14:40:26;7.60;68.30
15359;DHT22;7779;49.596;11.070;2023-02-01T14:42:54;7.60;67.80
15359;DHT22;7779;49.596;11.070;2023-02-01T14:47:49;7.60;68.00
15359;DHT22;7779;49.596;11.070;2023-02-01T14:50:48;7.50;67.80
15359;DHT22;7779;49.596;11.070;2023-02-01T14:53:30;7.60;67.80
15359;DHT22;7779;49.596;11.070;2023-02-01T14:56:08;7.50;67.60
15359;DHT22;7779;49.596;11.070;2023-02-01T15:01:26;7.50;67.60
15359;DHT22;7779;49.596;11.070;2023-02-01T15:04:13;7.50;67.80
15359;DHT22;7779;49.596;11.070;2023-02-01T15:09:23;7.50;67.80
15359;DHT22;7779;49.596;11.070;2023-02-01T15:14:45;7.50;67.50
15359;DHT22;7779;49.596;11.070;2023-02-01T15:17:24;7.50;67.60
15359;DHT22;7779;49.596;11.070;2023-02-01T15:19:56;7.50;67.60
15359;DHT22;7779;49.596;11.070;2023-02-01T15:22:24;7.50;67.70
15359;DHT22;7779;49.596;11.070;2023-02-01T15:24:53;7.50;67.70
15359;DHT22;7779;49.596;11.070;2023-02-01T15:27:24;7.50;67.70
15359;DHT22;7779;49.596;11.070;2023-02-01T15:29:51;7.50;67.60
15359;DHT22;7779;49.596;11.070;2023-02-01T15:32:43;7.40;67.60
15359;DHT22;7779;49.596;11.070;2023-02-01T15:35:46;7.40;66.70
15359;DHT22;7779;49.596;11.070;2023-02-01T15:41:04;7.40;67.40
15359;DHT22;7779;49.596;11.070;2023-02-01T15:43:36;7.40;68.00
15359;DHT22;7779;49.596;11.070;2023-02-01T15:46:12;7.40;67.50
15359;DHT22;7779;49.596;11.070;2023-02-01T15:48:48;7.40;67.50
15359;DHT22;7779;49.596;11.070;2023-02-01T15:51:28;7.40;67.40
15359;DHT22;7779;49.596;11.070;2023-02-01T15:54:04;7.40;67.50
15359;DHT22;7779;49.596;11.070;2023-02-01T15:56:37;7.40;67.30
15359;DHT22;7779;49.596;11.070;2023-02-01T15:59:15;7.40;67.30
15359;DHT22;7779;49.596;11.070;2023-02-01T16:01:42;7.40;67.20
15359;DHT22;7779;49.596;11.070;2023-02-01T16:04:18;7.30;67.20
15359;DHT22;7779;49.596;11.070;2023-02-01T16:07:03;7.30;67.10
15359;DHT22;7779;49.596;11.070;2023-02-01T16:09:56;7.40;67.20
15359;DHT22;7779;49.596;11.070;2023-02-01T16:12:31;7.40;66.80
15359;DHT22;7779;49.596;11.070;2023-02-01T16:15:11;7.30;67.20
15359;DHT22;7779;49.596;11.070;2023-02-01T16:17:37;7.30;67.20
15359;DHT22;7779;49.596;11.070;2023-02-01T16:20:03;7.30;67.10
15359;DHT22;7779;49.596;11.070;2023-02-01T16:22:29;7.30;67.10
15359;DHT22;7779;49.596;11.070;2023-02-01T16:24:54;7.30;67.00
15359;DHT22;7779;49.596;11.070;2023-02-01T16:27:20;7.30;67.00
15359;DHT22;7779;49.596;11.070;2023-02-01T16:29:48;7.30;67.00
15359;DHT22;7779;49.596;11.070;2023-02-01T16:32:19;7.30;67.00
15359;DHT22;7779;49.596;11.070;2023-02-01T16:34:47;7.30;66.90
15359;DHT22;7779;49.596;11.070;2023-02-01T16:37:17;7.30;66.90
15359;DHT22;7779;49.596;11.070;2023-02-01T16:39:48;7.30;66.90
15359;DHT22;7779;49.596;11.070;2023-02-01T16:42:15;7.30;66.90
15359;DHT22;7779;49.596;11.070;2023-02-01T16:44:42;7.30;66.90
15359;DHT22;7779;49.596;11.070;2023-02-01T16:47:17;7.30;66.70
15359;DHT22;7779;49.596;11.070;2023-02-01T16:49:44;7.30;66.70
15359;DHT22;7779;49.596;11.070;2023-02-01T16:52:17;7.30;66.80
15359;DHT22;7779;49.596;11.070;2023-02-01T16:54:46;7.30;66.50
15359;DHT22;7779;49.596;11.070;2023-02-01T16:57:15;7.30;65.90
15359;DHT22;7779;49.596;11.070;2023-02-01T16:59:42;7.30;66.70
15359;DHT22;7779;49.596;11.070;2023-02-01T17:02:15;7.30;66.70
15359;DHT22;7779;49.596;11.070;2023-02-01T17:04:42;7.30;66.60
15359;DHT22;7779;49.596;11.070;2023-02-01T17:07:18;7.30;66.60
15359;DHT22;7779;49.596;11.070;2023-02-01T17:09:45;7.30;66.40
15359;DHT22;7779;49.596;11.070;2023-02-01T17:12:31;7.30;66.70
15359;DHT22;7779;49.596;11.070;2023-02-01T17:14:59;7.30;66.10
15359;DHT22;7779;49.596;11.070;2023-02-01T17:17:33;7.30;66.50
15359;DHT22;7779;49.596;11.070;2023-02-01T17:20:03;7.30;66.30
15359;DHT22;7779;49.596;11.070;2023-02-01T17:22:30;7.30;66.30
15359;DHT22;7779;49.596;11.070;2023-02-01T17:24:55;7.30;66.50
15359;DHT22;7779;49.596;11.070;2023-02-01T17:27:21;7.30;67.20
15359;DHT22;7779;49.596;11.070;2023-02-01T17:29:47;7.30;66.50
15359;DHT22;7779;49.596;11.070;2023-02-01T17:32:20;7.30;66.40
15359;DHT22;7779;49.596;11.070;2023-02-01T17:34:48;7.30;66.20
15359;DHT22;7779;49.596;11.070;2023-02-01T17:37:26;7.30;66.50
15359;DHT22;7779;49.596;11.070;2023-02-01T17:39:55;7.30;66.00
15359;DHT22;7779;49.596;11.070;2023-02-01T17:42:26;7.30;66.30
15359;DHT22;7779;49.596;11.070;2023-02-01T17:45:10;7.30;66.10
15359;DHT22;7779;49.596;11.070;2023-02-01T17:47:43;7.30;66.00
15359;DHT22;7779;49.596;11.070;2023-02-01T17:50:09;7.30;66.30
15359;DHT22;7779;49.596;11.070;2023-02-01T17:52:35;7.30;66.20
15359;DHT22;7779;49.596;11.070;2023-02-01T17:55:01;7.30;66.30
15359;DHT22;7779;49.596;11.070;2023-02-01T17:57:29;7.30;66.30
15359;DHT22;7779;49.596;11.070;2023-02-01T17:59:55;7.30;66.30
15359;DHT22;7779;49.596;11.070;2023-02-01T18:02:22;7.30;66.30
15359;DHT22;7779;49.596;11.070;2023-02-01T18:04:50;7.30;66.30
15359;DHT22;7779;49.596;11.070;2023-02-01T18:07:16;7.30;66.40